This is the latest recevied weather packets stored in our database for station/object G4MDP-13. If no packets are shown the sender has not sent any weather packets the latest 1 day(s).
| Time | Temp. | Humidity | Pressure | Rain* | Wind** | Luminosity | Snow |
|---|---|---|---|---|---|---|---|
| 1836274456 | 15° C | 97% | 1006.8 hPa | 0 mm | 0.45 m/s, 78° | - | - |
| 1778067257 | 15° C | 47% | 1006.6 hPa | 0 mm | 1.34 m/s, 138° | - | - |
| 1778066357 | 15° C | 48% | 1006.6 hPa | 0 mm | 1.34 m/s, 146° | - | - |
| 1778065517 | 14.44° C | 46% | 1006.5 hPa | 0 mm | 1.79 m/s, 135° | - | - |
| 1778065457 | 14.44° C | 48% | 1006.6 hPa | 0 mm | 1.79 m/s, 133° | - | - |
| 1778064557 | 14.44° C | 49% | 1006.6 hPa | 0 mm | 1.34 m/s, 141° | - | - |
| 1778063717 | 15° C | 49% | 1006.7 hPa | 0 mm | 1.34 m/s, 163° | - | - |
| 1778063657 | 15° C | 48% | 1006.6 hPa | 0 mm | 1.34 m/s, 164° | - | - |
| 1778062757 | 13.89° C | 50% | 1006.7 hPa | 0 mm | 1.34 m/s, 139° | - | - |
| 1778061917 | 13.33° C | 52% | 1006.8 hPa | 0 mm | 1.34 m/s, 147° | - | - |
| 1778061857 | 13.33° C | 52% | 1006.7 hPa | 0 mm | 1.34 m/s, 148° | - | - |
| 1778060117 | 13.89° C | 53% | 1006.9 hPa | 0 mm | 1.79 m/s, 149° | - | - |
| 1778060057 | 13.89° C | 54% | 1006.7 hPa | 0 mm | 1.79 m/s, 151° | - | - |
| 1778059157 | 12.22° C | 54% | 1006.8 hPa | 0 mm | 1.34 m/s, 114° | - | - |
| 1778058317 | 12.22° C | 57% | 1006.8 hPa | 0 mm | 1.79 m/s, 143° | - | - |
| 1778058257 | 12.22° C | 57% | 1006.9 hPa | 0 mm | 1.79 m/s, 145° | - | - |
| 1778057357 | 11.67° C | 61% | 1006.6 hPa | 0 mm | 1.79 m/s, 129° | - | - |
| 1778056517 | 11.67° C | 61% | 1007 hPa | 0 mm | 1.34 m/s, 145° | - | - |
| 1778056457 | 11.11° C | 61% | 1006.9 hPa | 0 mm | 1.79 m/s, 147° | - | - |
| 1778055557 | 10.56° C | 65% | 1006.7 hPa | 0 mm | 1.34 m/s, 141° | - | - |
| 1778054717 | 11.11° C | 67% | 1012.6 hPa | 0 mm | 1.79 m/s, 152° | - | - |
| 1778054657 | 10.56° C | 67% | 1012.8 hPa | 0 mm | 1.79 m/s, 153° | - | - |
| 1778053769 | 10.56° C | 69% | 1007 hPa | 0 mm | 1.79 m/s, 134° | - | - |
| 1778052917 | 10.56° C | 70% | 1006.6 hPa | 0 mm | 1.79 m/s, 149° | - | - |
| 1778052857 | 10.56° C | 70% | 1006.6 hPa | 0 mm | 1.79 m/s, 150° | - | - |
* Rain latest hour (hover to see other rain measurements)
** Current wind speed in m/s (hover to see current wind gust speed)